createdAt,value
2023-02-19T00:01:55.057Z,15.80
2023-02-19T00:04:23.925Z,15.80
2023-02-19T00:06:52.560Z,15.80
2023-02-19T00:09:21.722Z,15.70
2023-02-19T00:11:50.374Z,15.80
2023-02-19T00:14:20.440Z,15.80
2023-02-19T00:16:48.863Z,15.70
2023-02-19T00:19:20.937Z,15.80
2023-02-19T00:21:49.524Z,15.80
2023-02-19T00:24:17.846Z,15.80
2023-02-19T00:26:47.691Z,15.80
2023-02-19T00:29:17.927Z,15.80
2023-02-19T00:31:47.103Z,15.80
2023-02-19T00:34:15.919Z,15.70
2023-02-19T00:36:46.336Z,15.70
2023-02-19T00:39:18.440Z,15.80
2023-02-19T00:41:47.319Z,15.80
2023-02-19T00:44:16.220Z,15.80
2023-02-19T00:46:46.150Z,15.80
2023-02-19T00:49:18.236Z,15.70
2023-02-19T00:51:48.097Z,15.80
2023-02-19T00:54:16.823Z,15.70
2023-02-19T00:56:45.243Z,15.70
2023-02-19T00:59:13.828Z,15.70
2023-02-19T01:01:42.301Z,15.70
2023-02-19T01:04:10.594Z,15.70
2023-02-19T01:06:38.953Z,15.70
2023-02-19T01:09:09.152Z,15.70
2023-02-19T01:11:38.328Z,15.70
2023-02-19T01:14:06.612Z,15.70
2023-02-19T01:16:34.864Z,15.70
2023-02-19T01:19:03.151Z,15.70
2023-02-19T01:21:32.229Z,15.70
2023-02-19T01:24:00.874Z,15.70
2023-02-19T01:26:32.543Z,15.70
2023-02-19T01:29:01.774Z,15.70
2023-02-19T01:31:31.214Z,15.60
2023-02-19T01:34:01.746Z,15.60
2023-02-19T01:36:31.033Z,15.70
2023-02-19T01:39:03.837Z,15.70
2023-02-19T01:41:35.722Z,15.60
2023-02-19T01:44:08.002Z,15.60
2023-02-19T01:46:37.697Z,15.60
2023-02-19T01:49:09.939Z,15.60
2023-02-19T01:51:42.627Z,15.60
2023-02-19T01:54:14.292Z,15.60
2023-02-19T01:56:45.605Z,15.60
2023-02-19T01:59:14.165Z,15.60
2023-02-19T02:01:43.218Z,15.60
2023-02-19T02:04:14.029Z,15.50
2023-02-19T02:06:48.381Z,15.50
2023-02-19T02:09:35.190Z,15.50
2023-02-19T02:12:05.277Z,15.50
2023-02-19T02:14:37.936Z,15.50
2023-02-19T02:17:14.051Z,15.50
2023-02-19T02:20:11.502Z,15.50
2023-02-19T02:22:43.389Z,15.50
2023-02-19T02:25:38.339Z,15.50
2023-02-19T02:28:25.134Z,15.50
2023-02-19T02:30:57.391Z,15.50
2023-02-19T02:33:33.444Z,15.50
2023-02-19T02:36:07.717Z,15.50
2023-02-19T02:38:39.515Z,15.50
2023-02-19T02:41:09.200Z,15.50
2023-02-19T02:43:38.123Z,15.50
2023-02-19T02:46:08.545Z,15.50
2023-02-19T02:48:42.573Z,15.40
2023-02-19T02:51:18.851Z,15.40
2023-02-19T02:54:08.148Z,15.40
2023-02-19T02:56:37.174Z,15.40
2023-02-19T02:59:09.299Z,15.40
2023-02-19T03:01:59.580Z,15.40
2023-02-19T03:04:34.495Z,15.50
2023-02-19T03:07:07.125Z,15.40
2023-02-19T03:09:40.815Z,15.40
2023-02-19T03:12:31.088Z,15.40
2023-02-19T03:15:24.577Z,15.40
2023-02-19T03:18:15.145Z,15.40
2023-02-19T03:20:48.008Z,15.40
2023-02-19T03:23:18.787Z,15.40
2023-02-19T03:26:05.806Z,15.40
2023-02-19T03:28:55.029Z,15.30
2023-02-19T03:31:27.236Z,15.40
2023-02-19T03:34:01.136Z,15.30
2023-02-19T03:36:36.727Z,15.40
2023-02-19T03:39:07.963Z,15.30
2023-02-19T03:41:44.714Z,15.30
2023-02-19T03:44:17.927Z,15.30
2023-02-19T03:46:49.535Z,15.30
2023-02-19T03:49:26.564Z,15.30
2023-02-19T03:52:02.772Z,15.30
2023-02-19T03:54:36.778Z,15.30
2023-02-19T03:57:13.485Z,15.30
2023-02-19T03:59:46.190Z,15.30
2023-02-19T04:02:18.492Z,15.30
2023-02-19T04:04:54.589Z,15.30
2023-02-19T04:07:24.364Z,15.30
2023-02-19T04:09:54.502Z,15.20
2023-02-19T04:12:24.135Z,15.20
2023-02-19T04:15:00.919Z,15.30
2023-02-19T04:17:35.597Z,15.20
2023-02-19T04:20:09.765Z,15.20
2023-02-19T04:22:40.506Z,15.20
2023-02-19T04:25:10.288Z,15.20
2023-02-19T04:27:39.488Z,15.20
2023-02-19T04:30:12.878Z,15.20
2023-02-19T04:32:41.227Z,15.20
2023-02-19T04:35:11.152Z,15.20
2023-02-19T04:37:39.528Z,15.20
2023-02-19T04:40:09.244Z,15.20
2023-02-19T04:42:37.497Z,15.20
2023-02-19T04:45:06.374Z,15.20
2023-02-19T04:47:34.789Z,15.20
2023-02-19T04:50:03.619Z,15.20
2023-02-19T04:52:33.809Z,15.20
2023-02-19T04:55:02.095Z,15.20
2023-02-19T04:57:30.455Z,15.20
2023-02-19T04:59:58.787Z,15.20
2023-02-19T05:02:27.095Z,15.20
2023-02-19T05:04:55.382Z,15.20
2023-02-19T05:07:23.760Z,15.20
2023-02-19T05:09:53.497Z,15.20
2023-02-19T05:12:22.636Z,15.20
2023-02-19T05:14:50.961Z,15.10
2023-02-19T05:17:19.369Z,15.10
2023-02-19T05:19:47.620Z,15.10
2023-02-19T05:22:15.955Z,15.10
2023-02-19T05:24:44.242Z,15.10
2023-02-19T05:27:13.829Z,15.10
2023-02-19T05:29:42.117Z,15.10
2023-02-19T05:32:10.736Z,15.10
2023-02-19T05:34:39.115Z,15.10
2023-02-19T05:37:07.372Z,15.10
2023-02-19T05:39:35.870Z,15.10
2023-02-19T05:42:04.268Z,15.10
2023-02-19T05:44:33.951Z,15.10
2023-02-19T05:47:02.424Z,15.10
2023-02-19T05:49:30.706Z,15.10
2023-02-19T05:51:58.991Z,15.10
2023-02-19T05:54:30.397Z,15.10
2023-02-19T05:56:58.862Z,15.10
2023-02-19T05:59:28.058Z,15.10
2023-02-19T06:01:58.527Z,15.10
2023-02-19T06:04:26.802Z,15.00
2023-02-19T06:06:55.081Z,15.10
2023-02-19T06:09:23.358Z,15.10
2023-02-19T06:11:51.627Z,15.10
2023-02-19T06:14:19.948Z,15.10
2023-02-19T06:16:48.311Z,15.10
2023-02-19T06:19:18.223Z,15.10
2023-02-19T06:21:46.779Z,15.10
2023-02-19T06:24:15.167Z,15.10
2023-02-19T06:26:43.451Z,15.10
2023-02-19T06:29:11.818Z,15.10
2023-02-19T06:31:40.352Z,15.00
2023-02-19T06:34:09.159Z,15.00
2023-02-19T06:36:38.885Z,15.00
2023-02-19T06:39:07.653Z,15.10
2023-02-19T06:41:35.873Z,15.10
2023-02-19T06:44:04.152Z,15.10
2023-02-19T06:46:32.488Z,15.10
2023-02-19T06:49:00.893Z,15.10
2023-02-19T06:51:29.863Z,15.10
2023-02-19T06:53:59.812Z,15.10
2023-02-19T06:56:29.975Z,15.10
2023-02-19T06:59:00.828Z,15.10
2023-02-19T07:01:30.622Z,15.10
2023-02-19T07:03:59.195Z,15.10
2023-02-19T07:06:28.848Z,15.20
2023-02-19T07:08:58.387Z,15.10
2023-02-19T07:11:30.712Z,15.20
2023-02-19T07:13:59.951Z,15.20
2023-02-19T07:16:29.047Z,15.20
2023-02-19T07:18:58.968Z,15.20
2023-02-19T07:21:28.192Z,15.20
2023-02-19T07:23:56.842Z,15.20
2023-02-19T07:26:26.353Z,15.20
2023-02-19T07:28:56.008Z,15.20
2023-02-19T07:31:25.912Z,15.20
2023-02-19T07:33:54.711Z,15.20
2023-02-19T07:36:25.113Z,15.20
2023-02-19T07:38:57.685Z,15.20
2023-02-19T07:41:26.352Z,15.20
2023-02-19T07:43:56.594Z,15.20
2023-02-19T07:46:25.460Z,15.20
2023-02-19T07:48:53.950Z,15.20
2023-02-19T07:51:22.754Z,15.20
2023-02-19T07:53:51.698Z,15.20
2023-02-19T07:56:21.067Z,15.20
2023-02-19T07:58:49.523Z,15.20
2023-02-19T08:01:40.299Z,15.20
2023-02-19T08:04:08.267Z,15.20
2023-02-19T08:06:36.834Z,15.20
2023-02-19T08:09:06.567Z,15.20
2023-02-19T08:11:52.547Z,15.20
2023-02-19T08:14:20.907Z,15.30
2023-02-19T08:16:54.079Z,15.30
2023-02-19T08:19:23.287Z,15.30
2023-02-19T08:21:51.817Z,15.30
2023-02-19T08:24:20.194Z,15.30
2023-02-19T08:26:48.493Z,15.30
2023-02-19T08:29:16.836Z,15.30
2023-02-19T08:31:46.690Z,15.30
2023-02-19T08:34:16.851Z,15.30
2023-02-19T08:36:45.259Z,15.30
2023-02-19T08:39:13.517Z,15.30
2023-02-19T08:41:41.802Z,15.30
2023-02-19T08:44:10.132Z,15.30
2023-02-19T08:46:38.796Z,15.30
2023-02-19T08:49:07.105Z,15.30
2023-02-19T08:51:37.093Z,15.30
2023-02-19T08:54:06.142Z,15.30
2023-02-19T08:56:34.462Z,15.40
2023-02-19T08:59:02.757Z,15.40
2023-02-19T09:01:31.980Z,15.40
2023-02-19T09:04:00.335Z,15.40
2023-02-19T09:06:29.264Z,15.40
2023-02-19T09:08:59.489Z,15.40
2023-02-19T09:11:27.790Z,15.40
2023-02-19T09:13:58.294Z,15.40
2023-02-19T09:16:27.237Z,15.40
2023-02-19T09:18:55.455Z,15.40
2023-02-19T09:21:24.916Z,15.40
2023-02-19T09:23:53.762Z,15.50
2023-02-19T09:26:25.384Z,15.50
2023-02-19T09:28:53.701Z,15.40
2023-02-19T09:31:22.050Z,15.50
2023-02-19T09:33:50.642Z,15.50
2023-02-19T09:36:19.934Z,15.50
2023-02-19T09:38:48.360Z,15.50
2023-02-19T09:41:25.240Z,15.50
2023-02-19T09:43:55.263Z,15.50
2023-02-19T09:46:30.217Z,15.50
2023-02-19T09:49:06.120Z,15.50
2023-02-19T09:51:38.104Z,15.50
2023-02-19T09:54:08.994Z,15.50
2023-02-19T09:56:37.344Z,15.50
2023-02-19T09:59:08.160Z,15.60
2023-02-19T10:01:40.631Z,15.50
2023-02-19T10:04:11.506Z,15.50
2023-02-19T10:06:40.151Z,15.60
2023-02-19T10:09:20.396Z,15.60
2023-02-19T10:11:51.055Z,15.60
2023-02-19T10:14:25.793Z,15.60
2023-02-19T10:16:55.253Z,15.60
2023-02-19T10:19:23.906Z,15.60
2023-02-19T10:21:52.725Z,15.60
2023-02-19T10:24:25.893Z,15.60
2023-02-19T10:26:54.892Z,15.60
2023-02-19T10:29:25.040Z,15.60
2023-02-19T10:32:14.889Z,15.60
2023-02-19T10:34:43.553Z,15.60
2023-02-19T10:37:16.656Z,15.60
2023-02-19T10:39:46.993Z,15.60
2023-02-19T10:42:21.411Z,15.60
2023-02-19T10:44:58.687Z,15.60
2023-02-19T10:47:28.580Z,15.60
2023-02-19T10:50:04.788Z,15.60
2023-02-19T10:52:36.367Z,15.60
2023-02-19T10:55:18.548Z,15.60
2023-02-19T10:57:47.334Z,15.60
2023-02-19T11:00:27.178Z,15.60
2023-02-19T11:03:15.400Z,15.60
2023-02-19T11:06:02.021Z,15.60
2023-02-19T11:08:31.298Z,15.60
2023-02-19T11:10:59.704Z,15.60
2023-02-19T11:13:32.721Z,15.60
2023-02-19T11:16:02.698Z,15.70
2023-02-19T11:18:33.504Z,15.70
2023-02-19T11:21:03.795Z,15.70
2023-02-19T11:23:35.355Z,15.70
2023-02-19T11:26:07.255Z,15.90
2023-02-19T11:28:37.829Z,15.90
2023-02-19T11:31:23.047Z,16.00
2023-02-19T11:33:58.523Z,16.00
2023-02-19T11:36:32.809Z,16.00
2023-02-19T11:39:21.361Z,16.00
2023-02-19T11:42:10.344Z,16.10
2023-02-19T11:44:50.713Z,16.00
2023-02-19T11:47:51.461Z,16.00
2023-02-19T11:50:26.178Z,16.00
2023-02-19T11:53:04.849Z,16.00
2023-02-19T11:55:46.582Z,16.10
2023-02-19T11:58:48.926Z,16.10
2023-02-19T12:01:24.995Z,16.10
2023-02-19T12:04:18.796Z,16.20
2023-02-19T12:06:56.565Z,16.20
2023-02-19T12:09:37.474Z,16.20
2023-02-19T12:12:27.579Z,16.20
2023-02-19T12:15:23.029Z,16.20
2023-02-19T12:18:16.909Z,16.20
2023-02-19T12:20:56.130Z,16.30
2023-02-19T12:23:49.004Z,16.30
2023-02-19T12:26:26.124Z,16.40
2023-02-19T12:29:18.204Z,16.40
2023-02-19T12:32:13.447Z,16.40
2023-02-19T12:35:21.657Z,16.50
2023-02-19T12:38:00.508Z,16.50
2023-02-19T12:40:39.918Z,16.50
2023-02-19T12:43:15.293Z,16.50
2023-02-19T12:45:49.553Z,16.50
2023-02-19T12:48:30.757Z,16.50
2023-02-19T12:51:04.165Z,16.50
2023-02-19T12:53:49.353Z,16.50
2023-02-19T12:56:21.418Z,16.60
2023-02-19T12:58:53.812Z,16.60
2023-02-19T13:01:27.876Z,16.50
2023-02-19T13:04:14.936Z,16.60
2023-02-19T13:06:47.992Z,16.60
2023-02-19T13:09:25.022Z,16.50
2023-02-19T13:11:57.938Z,16.60
2023-02-19T13:14:33.052Z,16.60
2023-02-19T13:17:09.461Z,16.60
2023-02-19T13:19:40.154Z,16.60
2023-02-19T13:22:38.069Z,16.60
2023-02-19T13:25:10.647Z,16.60
2023-02-19T13:27:59.583Z,16.60
2023-02-19T13:30:43.306Z,16.60
2023-02-19T13:33:35.282Z,16.60
2023-02-19T13:36:14.824Z,16.60
2023-02-19T13:38:46.333Z,16.60
2023-02-19T13:41:22.567Z,16.70
2023-02-19T13:43:58.489Z,16.60
2023-02-19T13:46:34.227Z,16.60
2023-02-19T13:49:42.814Z,16.60
2023-02-19T13:52:40.801Z,16.70
2023-02-19T13:55:49.814Z,16.70
2023-02-19T13:58:41.240Z,16.70
2023-02-19T14:01:12.634Z,16.70
2023-02-19T14:03:47.234Z,16.70
2023-02-19T14:06:16.116Z,16.70
2023-02-19T14:08:56.197Z,16.70
2023-02-19T14:12:07.084Z,16.70
2023-02-19T14:14:41.648Z,16.70
2023-02-19T14:17:31.125Z,16.70
2023-02-19T14:20:01.536Z,16.70
2023-02-19T14:23:01.665Z,16.70
2023-02-19T14:25:46.796Z,16.70
2023-02-19T14:28:30.677Z,16.70
2023-02-19T14:31:04.216Z,16.80
2023-02-19T14:33:35.340Z,16.70
2023-02-19T14:36:08.486Z,16.70
2023-02-19T14:38:39.383Z,16.80
2023-02-19T14:41:16.149Z,16.70
2023-02-19T14:43:46.271Z,16.70
2023-02-19T14:46:24.011Z,16.70
2023-02-19T14:48:52.566Z,16.70
2023-02-19T14:51:30.724Z,16.70
2023-02-19T14:54:01.036Z,16.70
2023-02-19T14:56:33.301Z,16.70
2023-02-19T14:59:26.794Z,16.70
2023-02-19T15:01:58.748Z,16.70
2023-02-19T15:04:29.516Z,16.70
2023-02-19T15:06:58.951Z,16.70
2023-02-19T15:09:33.292Z,16.70
2023-02-19T15:12:04.126Z,16.70
2023-02-19T15:14:34.764Z,16.70
2023-02-19T15:17:07.474Z,16.60
2023-02-19T15:19:39.634Z,16.70
2023-02-19T15:22:08.654Z,16.60
2023-02-19T15:24:37.197Z,16.60
2023-02-19T15:27:05.515Z,16.60
2023-02-19T15:29:33.928Z,16.70
2023-02-19T15:32:04.105Z,16.60
2023-02-19T15:34:33.572Z,16.60
2023-02-19T15:37:05.179Z,16.60
2023-02-19T15:39:36.544Z,16.60
2023-02-19T15:42:07.124Z,16.60
2023-02-19T15:44:52.365Z,16.60
2023-02-19T15:47:29.403Z,16.60
2023-02-19T15:50:05.618Z,16.70
2023-02-19T15:52:41.787Z,16.60
2023-02-19T15:55:23.005Z,16.60
2023-02-19T15:57:56.816Z,16.60
2023-02-19T16:00:31.748Z,16.60
2023-02-19T16:03:01.688Z,16.60
2023-02-19T16:05:30.851Z,16.70
2023-02-19T16:08:17.173Z,16.60
2023-02-19T16:10:57.826Z,16.60
2023-02-19T16:13:28.168Z,16.60
2023-02-19T16:16:04.405Z,16.60
2023-02-19T16:18:34.734Z,16.60
2023-02-19T16:21:07.087Z,16.60
2023-02-19T16:23:35.534Z,16.60
2023-02-19T16:26:04.360Z,16.60
2023-02-19T16:28:38.778Z,16.60
2023-02-19T16:31:09.396Z,16.60
2023-02-19T16:33:44.070Z,16.60
2023-02-19T16:36:27.470Z,16.60
2023-02-19T16:39:16.103Z,16.60
2023-02-19T16:42:18.042Z,16.60
2023-02-19T16:44:49.556Z,16.60
2023-02-19T16:47:30.209Z,16.70
2023-02-19T16:50:03.033Z,16.60
2023-02-19T16:52:32.049Z,16.60
2023-02-19T16:55:00.320Z,16.70
2023-02-19T16:57:29.542Z,16.60
2023-02-19T16:59:57.911Z,16.70
2023-02-19T17:02:26.716Z,16.60
2023-02-19T17:04:55.949Z,16.60
2023-02-19T17:07:27.521Z,16.60
2023-02-19T17:09:55.790Z,16.60
2023-02-19T17:12:24.621Z,16.60
2023-02-19T17:14:52.872Z,16.60
2023-02-19T17:17:21.140Z,16.60
2023-02-19T17:19:49.998Z,16.60
2023-02-19T17:22:19.037Z,16.60
2023-02-19T17:24:51.194Z,16.60
2023-02-19T17:27:19.589Z,16.60
2023-02-19T17:29:48.800Z,16.60
2023-02-19T17:32:17.466Z,16.60
2023-02-19T17:34:49.743Z,16.60
2023-02-19T17:37:18.163Z,16.60
2023-02-19T17:39:47.446Z,16.60
2023-02-19T17:42:17.499Z,16.60
2023-02-19T17:44:46.973Z,16.60
2023-02-19T17:47:16.541Z,16.60
2023-02-19T17:49:45.197Z,16.60
2023-02-19T17:52:18.053Z,16.60
2023-02-19T17:54:46.858Z,16.60
2023-02-19T17:57:17.498Z,16.60
2023-02-19T17:59:45.833Z,16.60
2023-02-19T18:02:14.894Z,16.60
2023-02-19T18:04:43.398Z,16.50
2023-02-19T18:07:12.151Z,16.50
2023-02-19T18:09:41.238Z,16.50
2023-02-19T18:12:10.202Z,16.50
2023-02-19T18:14:40.492Z,16.50
2023-02-19T18:17:08.926Z,16.50
2023-02-19T18:19:37.789Z,16.50
2023-02-19T18:22:06.689Z,16.50
2023-02-19T18:24:35.118Z,16.50
2023-02-19T18:27:04.011Z,16.40
2023-02-19T18:29:35.006Z,16.50
2023-02-19T18:32:05.015Z,16.40
2023-02-19T18:34:34.622Z,16.40
2023-02-19T18:37:03.810Z,16.40
2023-02-19T18:39:32.163Z,16.40
2023-02-19T18:42:01.213Z,16.40
2023-02-19T18:44:30.803Z,16.30
2023-02-19T18:46:59.652Z,16.30
2023-02-19T18:49:32.641Z,16.30
2023-02-19T18:52:01.952Z,16.30
2023-02-19T18:54:31.873Z,16.30
2023-02-19T18:57:00.940Z,16.30
2023-02-19T18:59:29.438Z,16.30
2023-02-19T19:01:58.191Z,16.30
2023-02-19T19:04:26.640Z,16.30
2023-02-19T19:06:56.474Z,16.30
2023-02-19T19:09:24.838Z,16.30
2023-02-19T19:11:53.238Z,16.30
2023-02-19T19:14:22.265Z,16.30
2023-02-19T19:16:50.786Z,16.30
2023-02-19T19:19:20.470Z,16.20
2023-02-19T19:21:53.436Z,16.30
2023-02-19T19:24:25.615Z,16.20
2023-02-19T19:26:54.815Z,16.20
2023-02-19T19:29:23.803Z,16.20
2023-02-19T19:31:52.300Z,16.20
2023-02-19T19:34:20.663Z,16.20
2023-02-19T19:36:49.148Z,16.20
2023-02-19T19:39:17.714Z,16.20
2023-02-19T19:41:48.255Z,16.20
2023-02-19T19:44:16.779Z,16.20
2023-02-19T19:46:46.658Z,16.10
2023-02-19T19:49:19.476Z,16.20
2023-02-19T19:51:48.120Z,16.10
2023-02-19T19:54:17.325Z,16.20
2023-02-19T19:56:50.555Z,16.10
2023-02-19T19:59:19.230Z,16.10
2023-02-19T20:01:52.307Z,16.10
2023-02-19T20:04:22.525Z,16.10
2023-02-19T20:06:51.813Z,16.10
2023-02-19T20:09:21.220Z,16.10
2023-02-19T20:11:53.906Z,16.10
2023-02-19T20:14:24.672Z,16.10
2023-02-19T20:16:53.708Z,16.10
2023-02-19T20:19:24.015Z,16.10
2023-02-19T20:21:54.751Z,16.10
2023-02-19T20:24:28.854Z,16.10
2023-02-19T20:27:02.559Z,16.10
2023-02-19T20:29:33.742Z,16.10
2023-02-19T20:32:04.602Z,16.10
2023-02-19T20:34:34.417Z,16.10
2023-02-19T20:37:04.158Z,16.10
2023-02-19T20:39:33.831Z,16.10
2023-02-19T20:42:05.782Z,16.10
2023-02-19T20:44:35.404Z,16.10
2023-02-19T20:47:08.302Z,16.10
2023-02-19T20:49:37.582Z,16.10
2023-02-19T20:52:09.084Z,16.10
2023-02-19T20:54:38.893Z,16.00
2023-02-19T20:57:09.492Z,16.10
2023-02-19T20:59:41.495Z,16.00
2023-02-19T21:02:19.050Z,16.00
2023-02-19T21:04:48.109Z,16.00
2023-02-19T21:07:17.447Z,16.00
2023-02-19T21:09:45.826Z,16.00
2023-02-19T21:12:15.636Z,16.00
2023-02-19T21:14:44.089Z,15.90
2023-02-19T21:17:13.611Z,15.90
2023-02-19T21:19:43.558Z,15.90
2023-02-19T21:22:12.870Z,15.90
2023-02-19T21:24:41.917Z,15.90
2023-02-19T21:27:10.969Z,15.90
2023-02-19T21:29:40.636Z,15.90
2023-02-19T21:32:09.118Z,16.00
2023-02-19T21:34:38.417Z,15.90
2023-02-19T21:37:07.205Z,15.90
2023-02-19T21:39:36.168Z,16.00
2023-02-19T21:42:05.094Z,16.00
2023-02-19T21:44:33.802Z,15.90
2023-02-19T21:47:04.076Z,16.00
2023-02-19T21:49:33.022Z,15.90
2023-02-19T21:52:01.681Z,15.90
2023-02-19T21:54:30.363Z,15.90
2023-02-19T21:57:02.624Z,15.90
2023-02-19T21:59:31.501Z,16.00
2023-02-19T22:02:00.148Z,15.90
2023-02-19T22:04:30.371Z,15.90
2023-02-19T22:06:59.357Z,16.00
2023-02-19T22:09:27.982Z,16.00
2023-02-19T22:11:56.664Z,15.90
2023-02-19T22:14:25.532Z,16.00
2023-02-19T22:16:54.215Z,16.00
2023-02-19T22:19:22.758Z,15.90
2023-02-19T22:21:52.770Z,16.00
2023-02-19T22:24:23.018Z,15.90
2023-02-19T22:26:56.447Z,15.90
2023-02-19T22:29:25.386Z,15.90
2023-02-19T22:31:54.368Z,15.90
2023-02-19T22:34:23.418Z,15.90
2023-02-19T22:36:53.204Z,15.90
2023-02-19T22:39:24.299Z,15.90
2023-02-19T22:41:53.453Z,15.90
2023-02-19T22:44:22.596Z,15.90
2023-02-19T22:46:52.542Z,15.90
2023-02-19T22:49:21.412Z,15.90
2023-02-19T22:51:55.259Z,15.90
2023-02-19T22:54:26.971Z,15.90
2023-02-19T22:56:55.406Z,15.90
2023-02-19T22:59:23.916Z,15.90
2023-02-19T23:01:52.537Z,15.90
2023-02-19T23:04:24.269Z,15.90
2023-02-19T23:06:54.124Z,15.90
2023-02-19T23:09:24.612Z,15.90
2023-02-19T23:11:54.128Z,15.90
2023-02-19T23:14:24.541Z,15.80
2023-02-19T23:16:52.975Z,15.90
2023-02-19T23:19:21.303Z,15.90
2023-02-19T23:21:49.950Z,15.80
2023-02-19T23:24:19.738Z,15.80
2023-02-19T23:26:50.030Z,15.80
2023-02-19T23:29:19.962Z,15.80
2023-02-19T23:31:48.639Z,15.80
2023-02-19T23:34:17.422Z,15.80
2023-02-19T23:36:47.422Z,15.80
2023-02-19T23:39:17.351Z,15.80
2023-02-19T23:41:51.775Z,15.80
2023-02-19T23:44:21.092Z,15.80
2023-02-19T23:46:49.672Z,15.80
2023-02-19T23:49:19.157Z,15.80
2023-02-19T23:51:47.542Z,15.80
2023-02-19T23:54:15.871Z,15.80
2023-02-19T23:56:44.178Z,15.80
2023-02-19T23:59:13.850Z,15.80
